sensor_id;sensor_type;location;lat;lon;timestamp;temperature;humidity
698;DHT22;331;48.414;9.938;2023-02-15T00:01:10;2.40;99.90
698;DHT22;331;48.414;9.938;2023-02-15T00:03:37;2.40;99.90
698;DHT22;331;48.414;9.938;2023-02-15T00:06:04;2.40;99.90
698;DHT22;331;48.414;9.938;2023-02-15T00:08:33;2.40;99.90
698;DHT22;331;48.414;9.938;2023-02-15T00:11:03;2.40;99.90
698;DHT22;331;48.414;9.938;2023-02-15T00:13:31;2.40;99.90
698;DHT22;331;48.414;9.938;2023-02-15T00:16:02;2.40;99.90
698;DHT22;331;48.414;9.938;2023-02-15T00:18:29;2.40;99.90
698;DHT22;331;48.414;9.938;2023-02-15T00:20:55;2.40;99.90
698;DHT22;331;48.414;9.938;2023-02-15T00:23:22;2.30;99.90
698;DHT22;331;48.414;9.938;2023-02-15T00:25:50;2.40;99.90
698;DHT22;331;48.414;9.938;2023-02-15T00:28:17;2.30;99.90
698;DHT22;331;48.414;9.938;2023-02-15T00:30:44;2.30;99.90
698;DHT22;331;48.414;9.938;2023-02-15T00:33:11;2.30;99.90
698;DHT22;331;48.414;9.938;2023-02-15T00:35:39;2.40;99.90
698;DHT22;331;48.414;9.938;2023-02-15T00:38:06;2.30;99.90
698;DHT22;331;48.414;9.938;2023-02-15T00:40:33;2.40;99.90
698;DHT22;331;48.414;9.938;2023-02-15T00:43:01;2.30;99.90
698;DHT22;331;48.414;9.938;2023-02-15T00:45:28;2.30;99.90
698;DHT22;331;48.414;9.938;2023-02-15T00:47:55;2.30;99.90
698;DHT22;331;48.414;9.938;2023-02-15T00:50:22;2.30;99.90
698;DHT22;331;48.414;9.938;2023-02-15T00:52:48;2.30;99.90
698;DHT22;331;48.414;9.938;2023-02-15T00:55:15;2.30;99.90
698;DHT22;331;48.414;9.938;2023-02-15T00:57:42;2.30;99.90
698;DHT22;331;48.414;9.938;2023-02-15T01:00:14;2.30;99.90
698;DHT22;331;48.414;9.938;2023-02-15T01:02:41;2.30;99.90
698;DHT22;331;48.414;9.938;2023-02-15T01:05:10;2.30;99.90
698;DHT22;331;48.414;9.938;2023-02-15T01:07:37;2.30;99.90
698;DHT22;331;48.414;9.938;2023-02-15T01:10:05;2.30;99.90
698;DHT22;331;48.414;9.938;2023-02-15T01:12:32;2.30;99.90
698;DHT22;331;48.414;9.938;2023-02-15T01:14:59;2.30;99.90
698;DHT22;331;48.414;9.938;2023-02-15T01:17:30;2.30;99.90
698;DHT22;331;48.414;9.938;2023-02-15T01:19:57;2.30;99.90
698;DHT22;331;48.414;9.938;2023-02-15T01:22:24;2.20;99.90
698;DHT22;331;48.414;9.938;2023-02-15T01:24:51;2.20;99.90
698;DHT22;331;48.414;9.938;2023-02-15T01:27:18;2.30;99.90
698;DHT22;331;48.414;9.938;2023-02-15T01:29:45;2.30;99.90
698;DHT22;331;48.414;9.938;2023-02-15T01:32:14;2.20;99.90
698;DHT22;331;48.414;9.938;2023-02-15T01:34:43;2.20;99.90
698;DHT22;331;48.414;9.938;2023-02-15T01:37:12;2.30;99.90
698;DHT22;331;48.414;9.938;2023-02-15T01:39:43;2.20;99.90
698;DHT22;331;48.414;9.938;2023-02-15T01:42:13;2.20;99.90
698;DHT22;331;48.414;9.938;2023-02-15T01:44:45;2.20;99.90
698;DHT22;331;48.414;9.938;2023-02-15T01:47:14;2.20;99.90
698;DHT22;331;48.414;9.938;2023-02-15T01:49:43;2.20;99.90
698;DHT22;331;48.414;9.938;2023-02-15T01:52:12;2.20;99.90
698;DHT22;331;48.414;9.938;2023-02-15T01:54:42;2.20;99.90
698;DHT22;331;48.414;9.938;2023-02-15T01:57:12;2.20;99.90
698;DHT22;331;48.414;9.938;2023-02-15T01:59:40;2.20;99.90
698;DHT22;331;48.414;9.938;2023-02-15T02:02:09;2.20;99.90
698;DHT22;331;48.414;9.938;2023-02-15T02:04:39;2.20;99.90
698;DHT22;331;48.414;9.938;2023-02-15T02:07:09;2.20;99.90
698;DHT22;331;48.414;9.938;2023-02-15T02:09:39;2.20;99.90
698;DHT22;331;48.414;9.938;2023-02-15T02:12:06;2.20;99.90
698;DHT22;331;48.414;9.938;2023-02-15T02:14:35;2.20;99.90
698;DHT22;331;48.414;9.938;2023-02-15T02:17:03;2.20;99.90
698;DHT22;331;48.414;9.938;2023-02-15T02:19:52;2.20;99.90
698;DHT22;331;48.414;9.938;2023-02-15T02:22:26;2.20;99.90
698;DHT22;331;48.414;9.938;2023-02-15T02:25:12;2.10;99.90
698;DHT22;331;48.414;9.938;2023-02-15T02:27:45;2.10;99.90
698;DHT22;331;48.414;9.938;2023-02-15T02:30:26;2.10;99.90
698;DHT22;331;48.414;9.938;2023-02-15T02:33:19;2.20;99.90
698;DHT22;331;48.414;9.938;2023-02-15T02:35:48;2.10;99.90
698;DHT22;331;48.414;9.938;2023-02-15T02:38:20;2.10;99.90
698;DHT22;331;48.414;9.938;2023-02-15T02:40:50;2.10;99.90
698;DHT22;331;48.414;9.938;2023-02-15T02:43:20;2.10;99.90
698;DHT22;331;48.414;9.938;2023-02-15T02:45:50;2.10;99.90
698;DHT22;331;48.414;9.938;2023-02-15T02:48:21;2.10;99.90
698;DHT22;331;48.414;9.938;2023-02-15T02:50:49;2.10;99.90
698;DHT22;331;48.414;9.938;2023-02-15T02:53:16;2.10;99.90
698;DHT22;331;48.414;9.938;2023-02-15T02:55:46;2.10;99.90
698;DHT22;331;48.414;9.938;2023-02-15T02:58:14;2.10;99.90
698;DHT22;331;48.414;9.938;2023-02-15T03:00:46;2.10;99.90
698;DHT22;331;48.414;9.938;2023-02-15T03:03:19;2.10;99.90
698;DHT22;331;48.414;9.938;2023-02-15T03:05:50;2.10;99.90
698;DHT22;331;48.414;9.938;2023-02-15T03:08:17;2.10;99.90
698;DHT22;331;48.414;9.938;2023-02-15T03:10:48;2.10;99.90
698;DHT22;331;48.414;9.938;2023-02-15T03:13:18;2.10;99.90
698;DHT22;331;48.414;9.938;2023-02-15T03:15:47;2.10;99.90
698;DHT22;331;48.414;9.938;2023-02-15T03:18:33;2.10;99.90
698;DHT22;331;48.414;9.938;2023-02-15T03:21:08;2.10;99.90
698;DHT22;331;48.414;9.938;2023-02-15T03:23:48;2.10;99.90
698;DHT22;331;48.414;9.938;2023-02-15T03:26:20;2.00;99.90
698;DHT22;331;48.414;9.938;2023-02-15T03:28:48;2.00;99.90
698;DHT22;331;48.414;9.938;2023-02-15T03:31:17;2.00;99.90
698;DHT22;331;48.414;9.938;2023-02-15T03:33:46;2.10;99.90
698;DHT22;331;48.414;9.938;2023-02-15T03:36:17;2.00;99.90
698;DHT22;331;48.414;9.938;2023-02-15T03:38:47;2.00;99.90
698;DHT22;331;48.414;9.938;2023-02-15T03:41:17;2.00;99.90
698;DHT22;331;48.414;9.938;2023-02-15T03:43:47;2.00;99.90
698;DHT22;331;48.414;9.938;2023-02-15T03:46:18;2.00;99.90
698;DHT22;331;48.414;9.938;2023-02-15T03:48:47;2.00;99.90
698;DHT22;331;48.414;9.938;2023-02-15T03:51:17;2.00;99.90
698;DHT22;331;48.414;9.938;2023-02-15T03:54:04;2.00;99.90
698;DHT22;331;48.414;9.938;2023-02-15T03:56:33;2.00;99.90
698;DHT22;331;48.414;9.938;2023-02-15T03:59:00;2.00;99.90
698;DHT22;331;48.414;9.938;2023-02-15T04:01:46;2.00;99.90
698;DHT22;331;48.414;9.938;2023-02-15T04:04:32;2.00;99.90
698;DHT22;331;48.414;9.938;2023-02-15T04:07:04;2.00;99.90
698;DHT22;331;48.414;9.938;2023-02-15T04:09:31;2.00;99.90
698;DHT22;331;48.414;9.938;2023-02-15T04:12:21;2.00;99.90
698;DHT22;331;48.414;9.938;2023-02-15T04:14:48;2.00;99.90
698;DHT22;331;48.414;9.938;2023-02-15T04:17:32;2.00;99.90
698;DHT22;331;48.414;9.938;2023-02-15T04:19:59;2.00;99.90
698;DHT22;331;48.414;9.938;2023-02-15T04:22:48;2.00;99.90
698;DHT22;331;48.414;9.938;2023-02-15T04:25:32;2.00;99.90
698;DHT22;331;48.414;9.938;2023-02-15T04:27:59;1.90;99.90
698;DHT22;331;48.414;9.938;2023-02-15T04:30:26;1.90;99.90
698;DHT22;331;48.414;9.938;2023-02-15T04:32:53;2.00;99.90
698;DHT22;331;48.414;9.938;2023-02-15T04:35:22;2.00;99.90
698;DHT22;331;48.414;9.938;2023-02-15T04:37:51;1.90;99.90
698;DHT22;331;48.414;9.938;2023-02-15T04:40:18;1.90;99.90
698;DHT22;331;48.414;9.938;2023-02-15T04:42:46;1.90;99.90
698;DHT22;331;48.414;9.938;2023-02-15T04:45:13;1.90;99.90
698;DHT22;331;48.414;9.938;2023-02-15T04:47:40;1.90;99.90
698;DHT22;331;48.414;9.938;2023-02-15T04:50:10;1.90;99.90
698;DHT22;331;48.414;9.938;2023-02-15T04:52:37;1.90;99.90
698;DHT22;331;48.414;9.938;2023-02-15T04:55:06;1.90;99.90
698;DHT22;331;48.414;9.938;2023-02-15T04:57:33;1.90;99.90
698;DHT22;331;48.414;9.938;2023-02-15T05:00:00;1.90;99.90
698;DHT22;331;48.414;9.938;2023-02-15T05:02:27;1.90;99.90
698;DHT22;331;48.414;9.938;2023-02-15T05:04:54;1.90;99.90
698;DHT22;331;48.414;9.938;2023-02-15T05:07:21;1.90;99.90
698;DHT22;331;48.414;9.938;2023-02-15T05:09:48;1.90;99.90
698;DHT22;331;48.414;9.938;2023-02-15T05:12:20;1.90;99.90
698;DHT22;331;48.414;9.938;2023-02-15T05:14:47;1.80;99.90
698;DHT22;331;48.414;9.938;2023-02-15T05:17:14;1.80;99.90
698;DHT22;331;48.414;9.938;2023-02-15T05:19:41;1.80;99.90
698;DHT22;331;48.414;9.938;2023-02-15T05:22:07;1.80;99.90
698;DHT22;331;48.414;9.938;2023-02-15T05:27:03;1.80;99.90
698;DHT22;331;48.414;9.938;2023-02-15T05:29:49;1.80;99.90
698;DHT22;331;48.414;9.938;2023-02-15T05:32:18;1.80;99.90
698;DHT22;331;48.414;9.938;2023-02-15T05:34:45;1.80;99.90
698;DHT22;331;48.414;9.938;2023-02-15T05:37:12;1.80;99.90
698;DHT22;331;48.414;9.938;2023-02-15T05:39:39;1.80;99.90
698;DHT22;331;48.414;9.938;2023-02-15T05:42:05;1.80;99.90
698;DHT22;331;48.414;9.938;2023-02-15T05:44:32;1.80;99.90
698;DHT22;331;48.414;9.938;2023-02-15T05:47:01;1.80;99.90
698;DHT22;331;48.414;9.938;2023-02-15T05:49:28;1.80;99.90
698;DHT22;331;48.414;9.938;2023-02-15T05:51:55;1.80;99.90
698;DHT22;331;48.414;9.938;2023-02-15T05:54:22;1.80;99.90
698;DHT22;331;48.414;9.938;2023-02-15T05:56:49;1.80;99.90
698;DHT22;331;48.414;9.938;2023-02-15T05:59:16;1.80;99.90
698;DHT22;331;48.414;9.938;2023-02-15T06:01:43;1.80;99.90
698;DHT22;331;48.414;9.938;2023-02-15T06:04:12;1.80;99.90
698;DHT22;331;48.414;9.938;2023-02-15T06:06:38;1.80;99.90
698;DHT22;331;48.414;9.938;2023-02-15T06:09:05;1.80;99.90
698;DHT22;331;48.414;9.938;2023-02-15T06:11:32;1.80;99.90
698;DHT22;331;48.414;9.938;2023-02-15T06:13:59;1.70;99.90
698;DHT22;331;48.414;9.938;2023-02-15T06:16:26;1.70;99.90
698;DHT22;331;48.414;9.938;2023-02-15T06:18:52;1.70;99.90
698;DHT22;331;48.414;9.938;2023-02-15T06:21:21;1.70;99.90
698;DHT22;331;48.414;9.938;2023-02-15T06:23:48;1.70;99.90
698;DHT22;331;48.414;9.938;2023-02-15T06:26:14;1.70;99.90
698;DHT22;331;48.414;9.938;2023-02-15T06:28:41;1.70;99.90
698;DHT22;331;48.414;9.938;2023-02-15T06:31:08;1.70;99.90
698;DHT22;331;48.414;9.938;2023-02-15T06:33:35;1.70;99.90
698;DHT22;331;48.414;9.938;2023-02-15T06:36:02;1.70;99.90
698;DHT22;331;48.414;9.938;2023-02-15T06:38:31;1.70;99.90
698;DHT22;331;48.414;9.938;2023-02-15T06:40:58;1.70;99.90
698;DHT22;331;48.414;9.938;2023-02-15T06:43:25;1.70;99.90
698;DHT22;331;48.414;9.938;2023-02-15T06:45:52;1.70;99.90
698;DHT22;331;48.414;9.938;2023-02-15T06:48:21;1.70;99.90
698;DHT22;331;48.414;9.938;2023-02-15T06:50:48;1.70;99.90
698;DHT22;331;48.414;9.938;2023-02-15T06:53:15;1.70;99.90
698;DHT22;331;48.414;9.938;2023-02-15T06:55:43;1.70;99.90
698;DHT22;331;48.414;9.938;2023-02-15T06:58:10;1.70;99.90
698;DHT22;331;48.414;9.938;2023-02-15T07:00:37;1.70;99.90
698;DHT22;331;48.414;9.938;2023-02-15T07:03:04;1.70;99.90
698;DHT22;331;48.414;9.938;2023-02-15T07:05:32;1.70;99.90
698;DHT22;331;48.414;9.938;2023-02-15T07:07:59;1.70;99.90
698;DHT22;331;48.414;9.938;2023-02-15T07:10:26;1.70;99.90
698;DHT22;331;48.414;9.938;2023-02-15T07:12:55;1.60;99.90
698;DHT22;331;48.414;9.938;2023-02-15T07:15:21;1.60;99.90
698;DHT22;331;48.414;9.938;2023-02-15T07:17:47;1.60;99.90
698;DHT22;331;48.414;9.938;2023-02-15T07:20:15;1.60;99.90
698;DHT22;331;48.414;9.938;2023-02-15T07:22:42;1.60;99.90
698;DHT22;331;48.414;9.938;2023-02-15T07:25:10;1.60;99.90
698;DHT22;331;48.414;9.938;2023-02-15T07:27:37;1.60;99.90
698;DHT22;331;48.414;9.938;2023-02-15T07:30:07;1.60;99.90
698;DHT22;331;48.414;9.938;2023-02-15T07:32:36;1.60;99.90
698;DHT22;331;48.414;9.938;2023-02-15T07:35:23;1.60;99.90
698;DHT22;331;48.414;9.938;2023-02-15T07:37:50;1.60;99.90
698;DHT22;331;48.414;9.938;2023-02-15T07:40:18;1.60;99.90
698;DHT22;331;48.414;9.938;2023-02-15T07:42:47;1.60;99.90
698;DHT22;331;48.414;9.938;2023-02-15T07:45:17;1.60;99.90
698;DHT22;331;48.414;9.938;2023-02-15T07:47:44;1.60;99.90
698;DHT22;331;48.414;9.938;2023-02-15T07:50:13;1.60;99.90
698;DHT22;331;48.414;9.938;2023-02-15T07:52:40;1.50;99.90
698;DHT22;331;48.414;9.938;2023-02-15T07:55:09;1.50;99.90
698;DHT22;331;48.414;9.938;2023-02-15T07:57:41;1.50;99.90
698;DHT22;331;48.414;9.938;2023-02-15T08:00:08;1.60;99.90
698;DHT22;331;48.414;9.938;2023-02-15T08:02:40;1.50;99.90
698;DHT22;331;48.414;9.938;2023-02-15T08:05:07;1.60;99.90
698;DHT22;331;48.414;9.938;2023-02-15T08:07:33;1.50;99.90
698;DHT22;331;48.414;9.938;2023-02-15T08:10:02;1.50;99.90
698;DHT22;331;48.414;9.938;2023-02-15T08:12:29;1.60;99.90
698;DHT22;331;48.414;9.938;2023-02-15T08:14:56;1.60;99.90
698;DHT22;331;48.414;9.938;2023-02-15T08:17:23;1.50;99.90
698;DHT22;331;48.414;9.938;2023-02-15T08:19:51;1.50;99.90
698;DHT22;331;48.414;9.938;2023-02-15T08:22:18;1.60;99.90
698;DHT22;331;48.414;9.938;2023-02-15T08:24:47;1.50;99.90
698;DHT22;331;48.414;9.938;2023-02-15T08:27:14;1.50;99.90
698;DHT22;331;48.414;9.938;2023-02-15T08:29:41;1.50;99.90
698;DHT22;331;48.414;9.938;2023-02-15T08:32:09;1.50;99.90
698;DHT22;331;48.414;9.938;2023-02-15T08:34:38;1.50;99.90
698;DHT22;331;48.414;9.938;2023-02-15T08:37:06;1.50;99.90
698;DHT22;331;48.414;9.938;2023-02-15T08:39:33;1.50;99.90
698;DHT22;331;48.414;9.938;2023-02-15T08:42:01;1.50;99.90
698;DHT22;331;48.414;9.938;2023-02-15T08:44:28;1.50;99.90
698;DHT22;331;48.414;9.938;2023-02-15T08:46:56;1.50;99.90
698;DHT22;331;48.414;9.938;2023-02-15T08:49:28;1.50;99.90
698;DHT22;331;48.414;9.938;2023-02-15T08:51:55;1.50;99.90
698;DHT22;331;48.414;9.938;2023-02-15T08:54:23;1.50;99.90
698;DHT22;331;48.414;9.938;2023-02-15T08:56:50;1.50;99.90
698;DHT22;331;48.414;9.938;2023-02-15T08:59:18;1.50;99.90
698;DHT22;331;48.414;9.938;2023-02-15T09:01:45;1.50;99.90
698;DHT22;331;48.414;9.938;2023-02-15T09:04:13;1.50;99.90
698;DHT22;331;48.414;9.938;2023-02-15T09:06:41;1.50;99.90
698;DHT22;331;48.414;9.938;2023-02-15T09:09:10;1.50;99.90
698;DHT22;331;48.414;9.938;2023-02-15T09:11:39;1.50;99.90
698;DHT22;331;48.414;9.938;2023-02-15T09:14:07;1.50;99.90
698;DHT22;331;48.414;9.938;2023-02-15T09:16:37;1.50;99.90
698;DHT22;331;48.414;9.938;2023-02-15T09:19:05;1.50;99.90
698;DHT22;331;48.414;9.938;2023-02-15T09:21:32;1.50;99.90
698;DHT22;331;48.414;9.938;2023-02-15T09:24:00;1.50;99.90
698;DHT22;331;48.414;9.938;2023-02-15T09:26:28;1.50;99.90
698;DHT22;331;48.414;9.938;2023-02-15T09:28:57;1.50;99.90
698;DHT22;331;48.414;9.938;2023-02-15T09:31:26;1.50;99.90
698;DHT22;331;48.414;9.938;2023-02-15T09:33:54;1.50;99.90
698;DHT22;331;48.414;9.938;2023-02-15T09:36:25;1.50;99.90
698;DHT22;331;48.414;9.938;2023-02-15T09:38:54;1.50;99.90
698;DHT22;331;48.414;9.938;2023-02-15T09:41:30;1.50;99.90
698;DHT22;331;48.414;9.938;2023-02-15T09:44:02;1.50;99.90
698;DHT22;331;48.414;9.938;2023-02-15T09:46:38;1.50;99.90
698;DHT22;331;48.414;9.938;2023-02-15T09:49:09;1.50;99.90
698;DHT22;331;48.414;9.938;2023-02-15T09:51:45;1.50;99.90
698;DHT22;331;48.414;9.938;2023-02-15T09:54:19;1.50;99.90
698;DHT22;331;48.414;9.938;2023-02-15T09:56:49;1.50;99.90
698;DHT22;331;48.414;9.938;2023-02-15T09:59:22;1.50;99.90
698;DHT22;331;48.414;9.938;2023-02-15T10:01:56;1.50;99.90
698;DHT22;331;48.414;9.938;2023-02-15T10:04:33;1.50;99.90
698;DHT22;331;48.414;9.938;2023-02-15T10:07:05;1.50;99.90
698;DHT22;331;48.414;9.938;2023-02-15T10:09:52;1.60;99.90
698;DHT22;331;48.414;9.938;2023-02-15T10:12:25;1.50;99.90
698;DHT22;331;48.414;9.938;2023-02-15T10:17:43;1.60;99.90
698;DHT22;331;48.414;9.938;2023-02-15T10:20:17;1.60;99.90
698;DHT22;331;48.414;9.938;2023-02-15T10:22:50;1.60;99.90
698;DHT22;331;48.414;9.938;2023-02-15T10:25:32;1.60;99.90
698;DHT22;331;48.414;9.938;2023-02-15T10:28:04;1.60;99.90
698;DHT22;331;48.414;9.938;2023-02-15T10:30:33;1.60;99.90
698;DHT22;331;48.414;9.938;2023-02-15T10:33:08;1.60;99.90
698;DHT22;331;48.414;9.938;2023-02-15T10:35:42;1.60;99.90
698;DHT22;331;48.414;9.938;2023-02-15T10:38:18;1.60;99.90
698;DHT22;331;48.414;9.938;2023-02-15T10:40:51;1.60;99.90
698;DHT22;331;48.414;9.938;2023-02-15T10:46:06;1.60;99.90
698;DHT22;331;48.414;9.938;2023-02-15T10:48:43;1.60;99.90
698;DHT22;331;48.414;9.938;2023-02-15T10:51:14;1.60;99.90
698;DHT22;331;48.414;9.938;2023-02-15T10:53:56;1.70;99.90
698;DHT22;331;48.414;9.938;2023-02-15T10:56:30;1.60;99.90
698;DHT22;331;48.414;9.938;2023-02-15T10:59:04;1.70;99.90
698;DHT22;331;48.414;9.938;2023-02-15T11:01:37;1.70;99.90
698;DHT22;331;48.414;9.938;2023-02-15T11:04:23;1.60;99.90
698;DHT22;331;48.414;9.938;2023-02-15T11:06:58;1.60;99.90
698;DHT22;331;48.414;9.938;2023-02-15T11:09:32;1.70;99.90
698;DHT22;331;48.414;9.938;2023-02-15T11:12:00;1.70;99.90
698;DHT22;331;48.414;9.938;2023-02-15T11:14:31;1.70;99.90
698;DHT22;331;48.414;9.938;2023-02-15T11:17:02;1.70;99.90
698;DHT22;331;48.414;9.938;2023-02-15T11:19:33;1.70;99.90
698;DHT22;331;48.414;9.938;2023-02-15T11:22:02;1.70;99.90
698;DHT22;331;48.414;9.938;2023-02-15T11:24:40;1.80;99.90
698;DHT22;331;48.414;9.938;2023-02-15T11:27:15;1.70;99.90
698;DHT22;331;48.414;9.938;2023-02-15T11:29:45;1.80;99.90
698;DHT22;331;48.414;9.938;2023-02-15T11:32:18;1.80;99.90
698;DHT22;331;48.414;9.938;2023-02-15T11:34:48;1.80;99.90
698;DHT22;331;48.414;9.938;2023-02-15T11:37:17;1.80;99.90
698;DHT22;331;48.414;9.938;2023-02-15T11:39:45;1.80;99.90
698;DHT22;331;48.414;9.938;2023-02-15T11:42:18;1.80;99.90
698;DHT22;331;48.414;9.938;2023-02-15T11:44:48;1.90;99.90
698;DHT22;331;48.414;9.938;2023-02-15T11:47:17;1.80;99.90
698;DHT22;331;48.414;9.938;2023-02-15T11:49:44;1.90;99.90
698;DHT22;331;48.414;9.938;2023-02-15T11:52:14;1.90;99.90
698;DHT22;331;48.414;9.938;2023-02-15T11:54:43;1.90;99.90
698;DHT22;331;48.414;9.938;2023-02-15T11:57:12;1.90;99.90
698;DHT22;331;48.414;9.938;2023-02-15T11:59:40;1.90;99.90
698;DHT22;331;48.414;9.938;2023-02-15T12:02:13;1.90;99.90
698;DHT22;331;48.414;9.938;2023-02-15T12:04:42;1.90;99.90
698;DHT22;331;48.414;9.938;2023-02-15T12:07:11;2.00;99.90
698;DHT22;331;48.414;9.938;2023-02-15T12:09:45;2.00;99.90
698;DHT22;331;48.414;9.938;2023-02-15T12:12:24;2.00;99.90
698;DHT22;331;48.414;9.938;2023-02-15T12:14:52;2.00;99.90
698;DHT22;331;48.414;9.938;2023-02-15T12:17:20;2.00;99.90
698;DHT22;331;48.414;9.938;2023-02-15T12:19:48;2.00;99.90
698;DHT22;331;48.414;9.938;2023-02-15T12:22:19;2.10;99.90
698;DHT22;331;48.414;9.938;2023-02-15T12:24:49;2.10;99.90
698;DHT22;331;48.414;9.938;2023-02-15T12:27:17;2.20;99.90
698;DHT22;331;48.414;9.938;2023-02-15T12:29:46;2.20;99.90
698;DHT22;331;48.414;9.938;2023-02-15T12:32:17;2.20;99.90
698;DHT22;331;48.414;9.938;2023-02-15T12:34:46;2.20;99.90
698;DHT22;331;48.414;9.938;2023-02-15T12:37:17;2.20;99.90
698;DHT22;331;48.414;9.938;2023-02-15T12:39:56;2.30;99.90
698;DHT22;331;48.414;9.938;2023-02-15T12:42:24;2.30;99.90
698;DHT22;331;48.414;9.938;2023-02-15T12:45:01;2.30;99.90
698;DHT22;331;48.414;9.938;2023-02-15T12:47:31;2.30;99.90
698;DHT22;331;48.414;9.938;2023-02-15T12:50:05;2.40;99.90
698;DHT22;331;48.414;9.938;2023-02-15T12:52:36;2.40;99.90
698;DHT22;331;48.414;9.938;2023-02-15T12:55:18;2.40;99.90
698;DHT22;331;48.414;9.938;2023-02-15T12:58:06;2.40;99.90
698;DHT22;331;48.414;9.938;2023-02-15T13:00:33;2.40;99.90
698;DHT22;331;48.414;9.938;2023-02-15T13:03:01;2.40;99.90
698;DHT22;331;48.414;9.938;2023-02-15T13:05:30;2.40;99.90
698;DHT22;331;48.414;9.938;2023-02-15T13:07:58;2.50;99.90
698;DHT22;331;48.414;9.938;2023-02-15T13:10:29;2.60;99.90
698;DHT22;331;48.414;9.938;2023-02-15T14:16:23;3.60;99.90
698;DHT22;331;48.414;9.938;2023-02-15T14:18:54;3.70;99.90
698;DHT22;331;48.414;9.938;2023-02-15T14:21:25;3.70;99.90
698;DHT22;331;48.414;9.938;2023-02-15T14:23:58;3.80;99.90
698;DHT22;331;48.414;9.938;2023-02-15T14:26:32;3.90;99.90
698;DHT22;331;48.414;9.938;2023-02-15T14:29:05;4.00;99.90
698;DHT22;331;48.414;9.938;2023-02-15T14:31:37;4.00;99.90
698;DHT22;331;48.414;9.938;2023-02-15T14:34:05;4.10;99.90
698;DHT22;331;48.414;9.938;2023-02-15T14:36:37;4.10;99.90
698;DHT22;331;48.414;9.938;2023-02-15T14:39:07;4.10;99.90
698;DHT22;331;48.414;9.938;2023-02-15T14:42:04;4.20;99.90
698;DHT22;331;48.414;9.938;2023-02-15T14:44:33;4.10;99.90
698;DHT22;331;48.414;9.938;2023-02-15T14:47:05;4.20;99.90
698;DHT22;331;48.414;9.938;2023-02-15T14:49:36;4.30;99.90
698;DHT22;331;48.414;9.938;2023-02-15T14:52:04;4.30;99.90
698;DHT22;331;48.414;9.938;2023-02-15T14:57:24;4.30;99.90
698;DHT22;331;48.414;9.938;2023-02-15T14:59:53;4.40;99.90
698;DHT22;331;48.414;9.938;2023-02-15T15:02:24;4.40;99.90
698;DHT22;331;48.414;9.938;2023-02-15T15:04:56;4.40;99.90
698;DHT22;331;48.414;9.938;2023-02-15T15:07:38;4.40;99.90
698;DHT22;331;48.414;9.938;2023-02-15T16:05:13;5.00;99.90
698;DHT22;331;48.414;9.938;2023-02-15T16:07:43;5.00;99.90
698;DHT22;331;48.414;9.938;2023-02-15T16:10:20;5.00;99.90
698;DHT22;331;48.414;9.938;2023-02-15T16:12:47;5.00;99.90
698;DHT22;331;48.414;9.938;2023-02-15T16:15:16;5.00;99.90
698;DHT22;331;48.414;9.938;2023-02-15T16:17:47;5.00;99.90
698;DHT22;331;48.414;9.938;2023-02-15T16:20:20;5.00;99.90
698;DHT22;331;48.414;9.938;2023-02-15T16:22:49;5.00;99.90
698;DHT22;331;48.414;9.938;2023-02-15T16:25:30;5.00;99.90
698;DHT22;331;48.414;9.938;2023-02-15T16:28:05;5.00;99.90
698;DHT22;331;48.414;9.938;2023-02-15T16:30:33;5.00;99.90
698;DHT22;331;48.414;9.938;2023-02-15T16:33:05;5.00;99.90
698;DHT22;331;48.414;9.938;2023-02-15T16:35:37;5.00;99.90
698;DHT22;331;48.414;9.938;2023-02-15T16:38:05;5.00;99.90
698;DHT22;331;48.414;9.938;2023-02-15T16:40:39;5.00;99.90
698;DHT22;331;48.414;9.938;2023-02-15T16:43:10;5.00;99.90
698;DHT22;331;48.414;9.938;2023-02-15T16:45:38;5.00;99.90
698;DHT22;331;48.414;9.938;2023-02-15T16:48:07;5.00;99.90
698;DHT22;331;48.414;9.938;2023-02-15T16:50:35;5.10;99.90
698;DHT22;331;48.414;9.938;2023-02-15T16:53:05;5.10;99.90
698;DHT22;331;48.414;9.938;2023-02-15T16:55:34;5.10;99.90
698;DHT22;331;48.414;9.938;2023-02-15T16:58:03;5.10;99.90
698;DHT22;331;48.414;9.938;2023-02-15T17:00:31;5.10;99.90
698;DHT22;331;48.414;9.938;2023-02-15T17:03:01;5.10;99.90
698;DHT22;331;48.414;9.938;2023-02-15T17:05:30;5.10;99.90
698;DHT22;331;48.414;9.938;2023-02-15T17:08:06;5.10;99.90
698;DHT22;331;48.414;9.938;2023-02-15T17:10:40;5.10;99.90
698;DHT22;331;48.414;9.938;2023-02-15T17:13:09;4.90;99.90
698;DHT22;331;48.414;9.938;2023-02-15T17:15:37;5.10;99.90
698;DHT22;331;48.414;9.938;2023-02-15T17:18:05;5.00;99.90
698;DHT22;331;48.414;9.938;2023-02-15T17:20:33;5.00;99.90
698;DHT22;331;48.414;9.938;2023-02-15T17:23:00;5.00;99.90
698;DHT22;331;48.414;9.938;2023-02-15T17:25:34;5.00;99.90
698;DHT22;331;48.414;9.938;2023-02-15T17:28:02;5.00;99.90
698;DHT22;331;48.414;9.938;2023-02-15T17:30:30;5.00;99.90
698;DHT22;331;48.414;9.938;2023-02-15T17:32:58;5.00;99.90
698;DHT22;331;48.414;9.938;2023-02-15T17:35:26;5.00;99.90
698;DHT22;331;48.414;9.938;2023-02-15T17:38:06;5.00;99.90
698;DHT22;331;48.414;9.938;2023-02-15T17:40:40;5.00;99.90
698;DHT22;331;48.414;9.938;2023-02-15T17:43:07;4.90;99.90
698;DHT22;331;48.414;9.938;2023-02-15T17:45:34;4.90;99.90
698;DHT22;331;48.414;9.938;2023-02-15T17:48:02;4.90;99.90
698;DHT22;331;48.414;9.938;2023-02-15T17:50:29;4.90;99.90
698;DHT22;331;48.414;9.938;2023-02-15T17:52:57;4.90;99.90
698;DHT22;331;48.414;9.938;2023-02-15T17:55:24;4.90;99.90
698;DHT22;331;48.414;9.938;2023-02-15T17:58:09;4.90;99.90
698;DHT22;331;48.414;9.938;2023-02-15T18:00:38;4.80;99.90
698;DHT22;331;48.414;9.938;2023-02-15T18:03:23;4.80;99.90
698;DHT22;331;48.414;9.938;2023-02-15T18:06:09;4.80;99.90
698;DHT22;331;48.414;9.938;2023-02-15T18:08:53;4.80;99.90
698;DHT22;331;48.414;9.938;2023-02-15T18:11:37;4.70;99.90
698;DHT22;331;48.414;9.938;2023-02-15T18:14:06;4.80;99.90
698;DHT22;331;48.414;9.938;2023-02-15T18:16:35;4.70;99.90
698;DHT22;331;48.414;9.938;2023-02-15T18:19:03;4.70;99.90
698;DHT22;331;48.414;9.938;2023-02-15T18:21:31;4.70;99.90
698;DHT22;331;48.414;9.938;2023-02-15T18:23:58;4.70;99.90
698;DHT22;331;48.414;9.938;2023-02-15T18:26:25;4.70;99.90
698;DHT22;331;48.414;9.938;2023-02-15T18:28:52;4.60;99.90
698;DHT22;331;48.414;9.938;2023-02-15T18:31:20;4.60;99.90
698;DHT22;331;48.414;9.938;2023-02-15T18:33:48;4.60;99.90
698;DHT22;331;48.414;9.938;2023-02-15T18:36:17;4.60;99.90
698;DHT22;331;48.414;9.938;2023-02-15T18:38:45;4.60;99.90
698;DHT22;331;48.414;9.938;2023-02-15T18:41:14;4.50;99.90
698;DHT22;331;48.414;9.938;2023-02-15T18:43:41;4.50;99.90
698;DHT22;331;48.414;9.938;2023-02-15T18:46:08;4.50;99.90
698;DHT22;331;48.414;9.938;2023-02-15T18:48:37;4.50;99.90
698;DHT22;331;48.414;9.938;2023-02-15T18:51:04;4.50;99.90
698;DHT22;331;48.414;9.938;2023-02-15T18:53:34;4.50;99.90
698;DHT22;331;48.414;9.938;2023-02-15T18:56:01;4.40;99.90
698;DHT22;331;48.414;9.938;2023-02-15T18:58:28;4.40;99.90
698;DHT22;331;48.414;9.938;2023-02-15T19:00:55;4.40;99.90
698;DHT22;331;48.414;9.938;2023-02-15T19:03:24;4.40;99.90
698;DHT22;331;48.414;9.938;2023-02-15T19:05:53;4.40;99.90
698;DHT22;331;48.414;9.938;2023-02-15T19:08:21;4.40;99.90
698;DHT22;331;48.414;9.938;2023-02-15T19:10:49;4.30;99.90
698;DHT22;331;48.414;9.938;2023-02-15T19:13:16;4.30;99.90
698;DHT22;331;48.414;9.938;2023-02-15T19:15:43;4.30;99.90
698;DHT22;331;48.414;9.938;2023-02-15T19:18:10;4.30;99.90
698;DHT22;331;48.414;9.938;2023-02-15T19:20:38;4.30;99.90